Time;durP1;ratioP1;P1;durP2;ratioP2;P2;SDS_P1;SDS_P2;PMS_P1;PMS_P2;Temp;Humidity;BMP_temperature;BMP_pressure;BME280_temperature;BME280_humidity;BME280_pressure;Samples;Min_cycle;Max_cycle;Signal;HPM_P1;HPM_P2
2023/11/08 00:00:06;;;;;;;7.35;2.30;;;10.30;99.90;;;;;;4247933;27;20043;-55
2023/11/08 00:02:08;;;;;;;5.15;2.38;;;10.30;99.90;;;;;;4247923;27;20051;-55
2023/11/08 00:04:13;;;;;;;9.13;2.70;;;10.20;99.90;;;;;;4247813;27;20043;-54
2023/11/08 00:06:16;;;;;;;9.60;2.78;;;10.20;99.90;;;;;;4248078;27;20496;-56
2023/11/08 00:08:18;;;;;;;9.75;2.85;;;10.20;99.90;;;;;;4247871;27;20066;-54
2023/11/08 00:10:20;;;;;;;9.57;2.75;;;10.20;99.90;;;;;;4247957;27;20039;-55
2023/11/08 00:12:24;;;;;;;7.65;2.22;;;10.20;99.90;;;;;;4247951;27;20047;-55
2023/11/08 00:14:26;;;;;;;13.27;3.13;;;10.20;99.90;;;;;;4247591;27;20057;-55
2023/11/08 00:16:28;;;;;;;6.70;2.53;;;10.30;99.90;;;;;;4247068;27;20512;-55
2023/11/08 00:18:30;;;;;;;9.23;2.60;;;10.30;99.90;;;;;;4247898;27;20054;-55
2023/11/08 00:20:35;;;;;;;6.43;2.20;;;10.30;99.90;;;;;;4247511;27;20043;-56
2023/11/08 00:22:38;;;;;;;8.50;2.35;;;10.30;99.90;;;;;;4247617;27;20142;-55
2023/11/08 00:24:40;;;;;;;8.82;2.90;;;10.20;99.90;;;;;;4247814;27;20405;-55
2023/11/08 00:26:42;;;;;;;6.57;2.35;;;10.30;99.90;;;;;;4247844;27;20061;-55
2023/11/08 00:28:44;;;;;;;12.82;3.05;;;10.30;99.90;;;;;;4247253;27;20047;-55
2023/11/08 00:30:46;;;;;;;10.02;2.40;;;10.30;99.90;;;;;;4247942;27;20142;-56
2023/11/08 00:32:48;;;;;;;9.52;2.30;;;10.30;99.90;;;;;;4247711;27;20068;-55
2023/11/08 00:34:50;;;;;;;9.73;2.85;;;10.20;99.90;;;;;;4247813;27;20104;-55
2023/11/08 00:36:54;;;;;;;9.52;2.70;;;10.20;99.90;;;;;;4247533;27;20475;-55
2023/11/08 00:38:57;;;;;;;6.97;2.30;;;10.10;99.90;;;;;;4247863;28;20064;-54
2023/11/08 00:40:59;;;;;;;10.85;2.83;;;10.20;99.90;;;;;;4247370;28;20104;-56
2023/11/08 00:43:01;;;;;;;7.68;2.58;;;10.20;99.90;;;;;;4247220;28;20126;-55
2023/11/08 00:45:04;;;;;;;7.03;2.30;;;10.20;99.90;;;;;;4247654;28;20047;-55
2023/11/08 00:47:07;;;;;;;14.07;2.78;;;10.20;99.90;;;;;;4247496;27;20512;-55
2023/11/08 00:49:12;;;;;;;9.10;3.08;;;10.10;99.90;;;;;;4247275;28;20131;-55
2023/11/08 00:51:15;;;;;;;10.35;2.78;;;10.20;99.90;;;;;;4247374;28;20039;-54
2023/11/08 00:53:18;;;;;;;10.00;3.53;;;10.20;99.90;;;;;;4247194;28;20049;-55
2023/11/08 00:55:20;;;;;;;12.18;2.92;;;10.20;99.90;;;;;;4247540;28;20390;-54
2023/11/08 00:57:22;;;;;;;9.45;3.22;;;10.10;99.90;;;;;;4246939;28;20451;-55
2023/11/08 00:59:25;;;;;;;9.13;2.75;;;10.20;99.90;;;;;;4246661;27;20039;-55
2023/11/08 01:01:30;;;;;;;11.35;3.17;;;10.20;99.90;;;;;;4250248;27;20467;-54
2023/11/08 01:03:32;;;;;;;9.90;2.72;;;10.20;99.90;;;;;;4250628;27;20069;-56
2023/11/08 01:05:35;;;;;;;7.18;2.67;;;10.10;99.90;;;;;;4250727;27;20043;-56
2023/11/08 01:07:38;;;;;;;9.25;2.55;;;10.20;99.90;;;;;;4250971;27;20043;-55
2023/11/08 01:09:41;;;;;;;8.90;2.80;;;10.10;99.90;;;;;;4251060;27;20051;-55
2023/11/08 01:11:44;;;;;;;5.82;2.67;;;10.20;99.90;;;;;;4250770;27;20047;-56
2023/11/08 01:13:46;;;;;;;9.85;2.85;;;10.20;99.90;;;;;;4250383;27;20078;-55
2023/11/08 01:15:49;;;;;;;5.95;2.42;;;10.20;99.90;;;;;;4250986;27;20051;-56
2023/11/08 01:17:51;;;;;;;7.57;2.53;;;10.20;99.90;;;;;;4250317;27;20053;-55
2023/11/08 01:19:53;;;;;;;7.78;2.65;;;10.20;99.90;;;;;;4250424;27;20054;-56
2023/11/08 01:21:56;;;;;;;8.98;2.95;;;10.20;99.90;;;;;;4250433;27;20095;-55
2023/11/08 01:23:59;;;;;;;12.13;2.53;;;10.10;99.90;;;;;;4250448;27;20478;-55
2023/11/08 01:26:03;;;;;;;8.20;2.83;;;10.20;99.90;;;;;;4250545;27;20119;-55
2023/11/08 01:28:05;;;;;;;6.13;2.35;;;10.20;99.90;;;;;;4250394;27;20107;-55
2023/11/08 01:30:10;;;;;;;7.20;2.95;;;10.30;99.90;;;;;;4250613;27;20043;-55
2023/11/08 01:32:12;;;;;;;7.25;2.95;;;10.20;99.90;;;;;;4250502;27;20055;-56
2023/11/08 01:34:15;;;;;;;10.02;2.80;;;10.20;99.90;;;;;;4249550;27;20043;-55
2023/11/08 01:36:17;;;;;;;12.07;3.15;;;10.20;99.90;;;;;;4250185;27;20108;-55
2023/11/08 01:38:19;;;;;;;9.45;3.30;;;10.20;99.90;;;;;;4250544;27;20386;-56
2023/11/08 01:40:21;;;;;;;8.63;3.20;;;10.20;99.90;;;;;;4250288;27;20066;-55
2023/11/08 01:42:25;;;;;;;7.88;2.97;;;10.10;99.90;;;;;;4249793;27;20051;-55
2023/11/08 01:44:27;;;;;;;11.30;3.50;;;10.20;99.90;;;;;;4250236;27;20039;-56
2023/11/08 01:46:30;;;;;;;11.25;3.30;;;10.20;99.90;;;;;;4250249;27;20073;-55
2023/11/08 01:48:33;;;;;;;10.70;3.10;;;10.10;99.90;;;;;;4250334;27;20068;-55
2023/11/08 01:50:35;;;;;;;10.18;3.38;;;10.10;99.90;;;;;;4250095;27;20073;-54
2023/11/08 01:52:37;;;;;;;12.25;3.00;;;10.10;99.90;;;;;;4250768;27;20050;-56
2023/11/08 01:54:45;;;;;;;11.88;3.50;;;10.10;99.90;;;;;;4251545;27;20133;-62
2023/11/08 01:56:47;;;;;;;8.88;2.90;;;10.20;99.90;;;;;;4250330;27;20096;-55
2023/11/08 01:58:54;;;;;;;9.50;3.28;;;10.20;99.90;;;;;;4250191;27;20047;-55
2023/11/08 02:01:00;;;;;;;7.65;2.95;;;10.10;99.90;;;;;;4249725;27;20111;-55
2023/11/08 02:03:03;;;;;;;7.72;2.65;;;10.20;99.90;;;;;;4249883;27;20104;-54
2023/11/08 02:05:06;;;;;;;9.13;3.33;;;10.10;99.90;;;;;;4249999;27;20054;-56
2023/11/08 02:07:08;;;;;;;10.43;3.13;;;10.10;99.90;;;;;;4249972;27;20548;-55
2023/11/08 02:09:11;;;;;;;10.38;3.45;;;10.10;99.90;;;;;;4249874;27;20055;-55
2023/11/08 02:11:13;;;;;;;10.25;3.67;;;10.10;99.90;;;;;;4249049;27;20051;-54
2023/11/08 02:13:16;;;;;;;9.45;3.50;;;10.10;99.90;;;;;;4249455;27;20074;-55
2023/11/08 02:15:20;;;;;;;6.57;2.85;;;10.10;99.90;;;;;;4249776;27;20067;-55
2023/11/08 02:17:23;;;;;;;7.95;3.25;;;10.10;99.90;;;;;;4249471;27;20039;-54
2023/11/08 02:19:25;;;;;;;11.55;3.75;;;10.10;99.90;;;;;;4249503;27;20118;-56
2023/11/08 02:21:27;;;;;;;5.53;2.83;;;10.10;99.90;;;;;;4249593;27;20126;-55
2023/11/08 02:23:31;;;;;;;11.73;3.53;;;10.20;99.90;;;;;;4249332;27;20047;-55
2023/11/08 02:25:35;;;;;;;10.48;3.45;;;10.30;99.90;;;;;;4249156;27;20071;-54
2023/11/08 02:27:43;;;;;;;7.68;3.33;;;10.20;99.90;;;;;;4249576;27;20520;-55
2023/11/08 02:29:46;;;;;;;8.80;3.20;;;10.20;99.90;;;;;;4249492;27;20092;-55
2023/11/08 02:31:50;;;;;;;8.50;3.92;;;10.20;99.90;;;;;;4249585;27;20045;-56
2023/11/08 02:33:53;;;;;;;;;;;10.20;99.90;;;;;;4250004;27;20134;-55
2023/11/08 02:35:59;;;;;;;11.55;3.35;;;10.20;99.90;;;;;;4249361;27;19919;-56
2023/11/08 02:38:01;;;;;;;9.18;3.83;;;10.10;99.90;;;;;;4249332;27;20100;-56
2023/11/08 02:40:06;;;;;;;13.48;3.83;;;10.10;99.90;;;;;;4248926;27;20464;-55
2023/11/08 02:42:10;;;;;;;7.75;3.22;;;10.20;99.90;;;;;;4249378;27;20181;-56
2023/11/08 02:44:12;;;;;;;9.98;3.65;;;10.30;99.90;;;;;;4249535;27;20053;-56
2023/11/08 02:46:15;;;;;;;6.28;2.92;;;10.30;99.90;;;;;;4249366;27;20039;-55
2023/11/08 02:48:17;;;;;;;13.85;3.72;;;10.30;99.90;;;;;;4249187;27;20069;-57
2023/11/08 02:50:19;;;;;;;7.88;3.42;;;10.30;99.90;;;;;;4249194;27;20047;-55
2023/11/08 02:52:21;;;;;;;9.93;3.88;;;10.20;99.90;;;;;;4249208;27;20043;-55
2023/11/08 02:54:25;;;;;;;9.65;3.10;;;10.20;99.90;;;;;;4248975;27;20141;-55
2023/11/08 02:56:28;;;;;;;6.30;3.08;;;10.20;99.90;;;;;;4249811;27;20047;-55
2023/11/08 02:58:31;;;;;;;7.95;3.47;;;10.20;99.90;;;;;;4249038;27;20414;-54
2023/11/08 03:00:33;;;;;;;10.00;3.47;;;10.30;99.90;;;;;;4249310;27;20055;-55
2023/11/08 03:02:35;;;;;;;9.65;3.65;;;10.30;99.90;;;;;;4248728;27;20127;-55
2023/11/08 03:04:38;;;;;;;10.23;3.50;;;10.20;99.90;;;;;;4249023;27;20043;-55
2023/11/08 03:06:43;;;;;;;8.40;3.58;;;10.20;99.90;;;;;;4249052;27;20066;-55
2023/11/08 03:08:45;;;;;;;11.98;4.55;;;10.30;99.90;;;;;;4248639;27;20067;-55
2023/11/08 03:10:47;;;;;;;6.20;3.35;;;10.30;99.90;;;;;;4248798;27;20499;-56
2023/11/08 03:12:51;;;;;;;6.50;2.97;;;10.20;99.90;;;;;;4248778;27;20150;-55
2023/11/08 03:14:55;;;;;;;12.82;4.15;;;10.20;99.90;;;;;;4230600;28;20094;-54
2023/11/08 03:16:59;;;;;;;11.82;3.67;;;10.10;99.90;;;;;;4248559;27;20512;-55
2023/11/08 03:19:02;;;;;;;9.00;3.88;;;10.20;99.90;;;;;;4248762;27;20497;-55
2023/11/08 03:21:04;;;;;;;11.13;3.40;;;10.10;99.90;;;;;;4248689;27;20050;-54
2023/11/08 03:23:06;;;;;;;8.95;3.45;;;10.10;99.90;;;;;;4247609;27;20051;-56
2023/11/08 03:25:13;;;;;;;6.57;3.40;;;10.10;99.90;;;;;;4248562;27;20517;-54
2023/11/08 03:27:15;;;;;;;11.35;3.40;;;10.10;99.90;;;;;;4248690;27;20039;-55
2023/11/08 03:29:17;;;;;;;12.02;3.83;;;10.10;99.90;;;;;;4248683;27;20141;-55
2023/11/08 03:31:21;;;;;;;10.65;3.20;;;10.00;99.90;;;;;;4248670;27;20386;-55
2023/11/08 03:33:23;;;;;;;11.60;3.55;;;10.00;99.90;;;;;;4248492;27;20070;-54
2023/11/08 03:35:25;;;;;;;9.30;3.38;;;10.00;99.90;;;;;;4248385;27;20106;-55
2023/11/08 03:37:27;;;;;;;6.72;2.88;;;10.10;99.90;;;;;;4248097;27;20050;-54
2023/11/08 03:39:30;;;;;;;12.02;3.53;;;10.10;99.90;;;;;;4248433;27;20050;-55
2023/11/08 03:41:33;;;;;;;13.65;3.83;;;10.10;99.90;;;;;;4248175;27;20115;-55
2023/11/08 03:43:36;;;;;;;7.40;3.38;;;10.10;99.90;;;;;;4248010;27;20093;-55
2023/11/08 03:45:38;;;;;;;9.95;3.72;;;10.10;99.90;;;;;;4248143;27;20458;-56
2023/11/08 03:47:41;;;;;;;7.57;3.00;;;10.00;99.90;;;;;;4248037;27;20182;-54
2023/11/08 03:49:44;;;;;;;12.65;3.47;;;10.10;99.90;;;;;;4247910;27;20043;-55
2023/11/08 03:51:46;;;;;;;7.65;3.15;;;10.10;99.90;;;;;;4247795;27;20093;-54
2023/11/08 03:53:48;;;;;;;12.95;3.05;;;10.00;99.90;;;;;;4248116;27;20039;-55
2023/11/08 03:55:50;;;;;;;10.45;2.95;;;10.10;99.90;;;;;;4248110;27;20043;-55
2023/11/08 03:57:53;;;;;;;9.70;3.28;;;10.10;99.90;;;;;;4248078;27;20045;-54
2023/11/08 03:59:55;;;;;;;10.68;3.13;;;10.10;99.90;;;;;;4230033;28;20044;-59
2023/11/08 04:01:57;;;;;;;8.27;2.80;;;10.10;99.90;;;;;;4247715;27;20051;-55
2023/11/08 04:04:01;;;;;;;7.88;3.08;;;10.20;99.90;;;;;;4247902;27;20054;-55
2023/11/08 04:06:03;;;;;;;7.85;2.85;;;10.20;99.90;;;;;;4247523;27;20043;-55
2023/11/08 04:08:07;;;;;;;12.57;3.53;;;10.10;99.90;;;;;;4247958;27;20331;-54
2023/11/08 04:10:10;;;;;;;9.40;3.17;;;10.10;99.90;;;;;;4247963;27;20100;-56
2023/11/08 04:12:12;;;;;;;9.43;3.42;;;10.10;99.90;;;;;;4248103;27;20463;-55
2023/11/08 04:14:15;;;;;;;7.28;2.55;;;10.10;99.90;;;;;;4247678;27;20120;-55
2023/11/08 04:16:17;;;;;;;11.82;3.13;;;10.20;99.90;;;;;;4247741;27;20122;-55
2023/11/08 04:18:19;;;;;;;8.55;3.50;;;10.10;99.90;;;;;;4247971;27;20049;-55
2023/11/08 04:20:23;;;;;;;11.13;3.45;;;10.10;99.90;;;;;;4247505;27;20058;-55
2023/11/08 04:22:25;;;;;;;10.85;3.15;;;10.10;99.90;;;;;;4247537;27;20070;-55
2023/11/08 04:24:27;;;;;;;12.20;3.25;;;10.20;99.90;;;;;;4247710;27;20050;-56
2023/11/08 04:26:30;;;;;;;10.05;3.42;;;10.00;99.90;;;;;;4247694;27;20459;-55
2023/11/08 04:28:32;;;;;;;8.85;3.08;;;10.00;99.90;;;;;;4248078;27;20082;-55
2023/11/08 04:30:34;;;;;;;13.70;3.50;;;10.00;99.90;;;;;;4247965;27;20047;-55
2023/11/08 04:32:36;;;;;;;10.27;3.42;;;10.00;99.90;;;;;;4247562;27;20477;-55
2023/11/08 04:34:38;;;;;;;14.00;3.13;;;10.00;99.90;;;;;;4229075;28;20050;-55
2023/11/08 04:36:42;;;;;;;8.18;3.17;;;10.10;99.90;;;;;;4229308;28;20476;-55
2023/11/08 04:38:45;;;;;;;11.23;3.42;;;10.10;99.90;;;;;;4247428;27;20047;-56
2023/11/08 04:40:47;;;;;;;7.32;3.15;;;10.10;99.90;;;;;;4247398;28;20118;-55
2023/11/08 04:42:49;;;;;;;11.82;3.53;;;10.10;99.90;;;;;;4247623;28;20039;-55
2023/11/08 04:44:52;;;;;;;8.75;3.25;;;10.10;99.90;;;;;;4247895;28;20088;-63
2023/11/08 04:46:54;;;;;;;9.32;3.40;;;10.10;99.90;;;;;;4249042;27;20047;-61
2023/11/08 04:48:56;;;;;;;6.18;2.30;;;10.10;99.90;;;;;;4249389;28;20062;-55
2023/11/08 04:50:59;;;;;;;9.18;2.95;;;10.20;99.90;;;;;;4247633;28;20122;-55
2023/11/08 04:53:03;;;;;;;9.65;3.08;;;10.30;99.90;;;;;;4247392;28;20065;-55
2023/11/08 04:55:06;;;;;;;5.93;2.95;;;10.30;99.90;;;;;;4247585;28;20405;-54
2023/11/08 04:57:08;;;;;;;9.35;3.67;;;10.30;99.90;;;;;;4247387;28;20088;-54
2023/11/08 04:59:12;;;;;;;10.10;2.63;;;10.30;99.90;;;;;;4247269;28;20118;-56
2023/11/08 05:01:15;;;;;;;8.05;2.80;;;10.30;99.90;;;;;;4247333;28;20051;-55
2023/11/08 05:03:17;;;;;;;10.35;3.08;;;10.20;99.90;;;;;;4247104;28;20059;-57
2023/11/08 05:05:19;;;;;;;10.45;2.70;;;10.20;99.90;;;;;;4246950;28;20050;-54
2023/11/08 05:07:22;;;;;;;11.18;2.97;;;10.20;99.90;;;;;;4247210;28;20116;-56
2023/11/08 05:09:26;;;;;;;12.10;3.25;;;10.20;99.90;;;;;;4247464;28;20047;-55
2023/11/08 05:11:28;;;;;;;9.23;3.42;;;10.20;99.90;;;;;;4247266;28;20047;-53
2023/11/08 05:13:31;;;;;;;9.65;2.90;;;10.10;99.90;;;;;;4246242;28;20080;-55
2023/11/08 05:15:33;;;;;;;6.25;3.17;;;10.00;99.90;;;;;;4247187;28;20413;-55
2023/11/08 05:17:37;;;;;;;7.63;2.90;;;10.00;99.90;;;;;;4247100;28;20066;-55
2023/11/08 05:19:39;;;;;;;7.95;3.15;;;10.00;99.90;;;;;;4246875;28;20043;-55
2023/11/08 05:21:41;;;;;;;8.30;3.22;;;10.00;99.90;;;;;;4247121;28;20047;-55
2023/11/08 05:23:43;;;;;;;8.57;3.03;;;10.10;99.90;;;;;;4247405;28;20043;-56
2023/11/08 05:25:46;;;;;;;10.10;3.25;;;10.10;99.90;;;;;;4247379;28;20047;-55
2023/11/08 05:27:50;;;;;;;10.63;3.42;;;10.00;99.90;;;;;;4247028;28;20051;-55
2023/11/08 05:29:53;;;;;;;7.03;2.72;;;10.10;99.90;;;;;;4247222;28;20394;-55
2023/11/08 05:31:55;;;;;;;6.93;3.13;;;10.10;99.90;;;;;;4247298;28;20066;-56
2023/11/08 05:33:57;;;;;;;10.02;3.05;;;10.10;99.90;;;;;;4246843;28;20039;-55
2023/11/08 05:35:59;;;;;;;10.55;3.20;;;10.10;99.90;;;;;;4247110;28;20045;-55
2023/11/08 05:38:01;;;;;;;9.75;3.30;;;10.10;99.90;;;;;;4247436;28;20051;-54
2023/11/08 05:40:04;;;;;;;8.43;3.35;;;10.10;99.90;;;;;;4247285;28;20481;-55
2023/11/08 05:42:08;;;;;;;10.02;3.75;;;10.10;99.90;;;;;;4247632;28;20051;-55
2023/11/08 05:44:10;;;;;;;14.60;4.38;;;10.00;99.90;;;;;;4247187;28;20071;-55
2023/11/08 05:46:12;;;;;;;5.75;3.28;;;10.10;99.90;;;;;;4229512;28;20386;-54
2023/11/08 05:48:15;;;;;;;14.95;3.58;;;10.10;99.90;;;;;;4250097;27;20500;-54
2023/11/08 05:50:17;;;;;;;7.28;3.30;;;10.20;99.90;;;;;;4250401;27;20050;-55
2023/11/08 05:52:19;;;;;;;8.15;2.88;;;10.10;99.90;;;;;;4250367;27;20047;-55
2023/11/08 05:54:25;;;;;;;7.38;3.50;;;10.20;99.90;;;;;;4250290;27;20511;-55
2023/11/08 05:56:28;;;;;;;11.57;3.50;;;10.20;99.90;;;;;;4249966;27;20041;-54
2023/11/08 05:58:31;;;;;;;10.35;4.30;;;10.20;99.90;;;;;;4249939;27;20043;-55
2023/11/08 06:00:34;;;;;;;10.70;3.90;;;10.20;99.90;;;;;;4231455;28;20078;-54
2023/11/08 06:02:36;;;;;;;9.13;3.83;;;10.20;99.90;;;;;;4249477;27;20130;-55
2023/11/08 06:04:38;;;;;;;7.25;3.72;;;10.20;99.90;;;;;;4249778;27;20043;-54
2023/11/08 06:06:41;;;;;;;9.35;3.63;;;10.20;99.90;;;;;;4249940;27;20130;-55
2023/11/08 06:08:45;;;;;;;6.50;3.50;;;10.20;99.90;;;;;;4249884;27;20058;-55
2023/11/08 06:10:48;;;;;;;8.60;4.00;;;10.20;99.90;;;;;;4249653;27;20539;-55
2023/11/08 06:12:50;;;;;;;11.07;3.75;;;10.20;99.90;;;;;;4249515;27;20419;-56
2023/11/08 06:14:54;;;;;;;8.63;3.88;;;10.20;99.90;;;;;;4249602;27;20051;-54
2023/11/08 06:16:57;;;;;;;16.33;4.88;;;10.20;99.90;;;;;;4249228;27;20493;-55
2023/11/08 06:19:01;;;;;;;12.55;4.32;;;10.20;99.90;;;;;;4249609;27;20043;-56
2023/11/08 06:21:05;;;;;;;8.60;3.88;;;10.10;99.90;;;;;;4249457;27;20043;-55
2023/11/08 06:23:07;;;;;;;12.80;4.32;;;10.20;99.90;;;;;;4249497;27;20044;-56
2023/11/08 06:25:09;;;;;;;16.20;4.88;;;10.20;99.90;;;;;;4249552;27;20044;-54
2023/11/08 06:27:11;;;;;;;11.32;4.57;;;10.20;99.90;;;;;;4249667;27;20171;-55
2023/11/08 06:29:13;;;;;;;13.00;5.55;;;10.20;99.90;;;;;;4250070;27;20287;-54
2023/11/08 06:31:20;;;;;;;9.63;4.40;;;10.20;99.90;;;;;;4249054;27;20140;-55
2023/11/08 06:33:22;;;;;;;13.02;4.90;;;10.20;99.90;;;;;;4249343;27;20071;-54
2023/11/08 06:35:25;;;;;;;9.00;4.45;;;10.10;99.90;;;;;;4249342;27;20043;-54
2023/11/08 06:37:27;;;;;;;10.75;5.50;;;10.00;99.90;;;;;;4231177;28;20043;-55
2023/11/08 06:39:29;;;;;;;9.60;5.40;;;10.00;99.90;;;;;;4249366;27;20069;-55
2023/11/08 06:41:31;;;;;;;14.57;6.15;;;9.90;99.90;;;;;;4249321;27;20142;-54
2023/11/08 06:43:33;;;;;;;13.07;5.78;;;10.00;99.90;;;;;;4249194;27;20075;-55
2023/11/08 06:45:36;;;;;;;10.90;5.78;;;9.90;99.90;;;;;;4248918;27;20040;-54
2023/11/08 06:47:39;;;;;;;10.38;5.43;;;9.80;99.90;;;;;;4249312;27;20096;-55
2023/11/08 06:49:42;;;;;;;9.02;5.57;;;9.80;99.90;;;;;;4249082;27;20039;-55
2023/11/08 06:51:44;;;;;;;10.07;5.50;;;9.80;99.90;;;;;;4249481;27;20120;-55
2023/11/08 06:53:46;;;;;;;10.10;4.63;;;9.80;99.90;;;;;;4249243;27;20061;-56
2023/11/08 06:55:48;;;;;;;9.82;4.28;;;9.80;99.90;;;;;;4249067;27;20050;-54
2023/11/08 06:57:50;;;;;;;11.02;4.78;;;9.70;99.90;;;;;;4249306;27;20039;-56
2023/11/08 06:59:53;;;;;;;6.90;4.43;;;9.70;99.90;;;;;;4248766;27;20450;-55
2023/11/08 07:01:55;;;;;;;9.85;3.90;;;9.70;99.90;;;;;;4230916;28;20040;-54
2023/11/08 07:03:58;;;;;;;6.95;4.00;;;9.80;99.90;;;;;;4249088;27;20072;-57
2023/11/08 07:06:04;;;;;;;7.88;4.13;;;9.80;99.90;;;;;;4249266;27;20067;-55
2023/11/08 07:08:07;;;;;;;7.82;4.43;;;9.80;99.90;;;;;;4249251;27;20126;-59
2023/11/08 07:10:11;;;;;;;9.32;4.47;;;9.70;99.90;;;;;;4250184;27;20058;-63
2023/11/08 07:12:13;;;;;;;8.82;5.15;;;9.80;99.90;;;;;;4251212;27;20047;-58
2023/11/08 07:14:15;;;;;;;11.05;4.93;;;9.80;99.90;;;;;;4251191;27;20078;-57
2023/11/08 07:16:18;;;;;;;8.82;4.22;;;9.70;99.90;;;;;;4250025;27;20039;-54
2023/11/08 07:18:20;;;;;;;7.97;4.38;;;9.80;99.90;;;;;;4251292;27;20048;-60
2023/11/08 07:20:24;;;;;;;8.35;4.05;;;9.80;99.90;;;;;;4251159;27;20103;-57
2023/11/08 07:22:26;;;;;;;9.32;4.03;;;9.90;99.90;;;;;;4251249;27;20051;-54
2023/11/08 07:24:28;;;;;;;8.80;3.67;;;9.80;99.90;;;;;;4250797;27;20058;-56
2023/11/08 07:26:30;;;;;;;9.48;3.85;;;9.80;99.90;;;;;;4250786;27;20043;-59
2023/11/08 07:28:32;;;;;;;6.75;3.90;;;9.80;99.90;;;;;;4251820;27;20062;-55
2023/11/08 07:30:34;;;;;;;8.95;4.10;;;9.80;99.90;;;;;;4250717;27;20082;-61
2023/11/08 07:32:38;;;;;;;9.18;4.30;;;9.80;99.90;;;;;;4250144;27;20053;-57
2023/11/08 07:34:40;;;;;;;7.97;3.83;;;9.80;99.90;;;;;;4249121;27;20042;-55
2023/11/08 07:36:43;;;;;;;9.23;4.45;;;9.80;99.90;;;;;;4250706;27;20035;-54
2023/11/08 07:38:45;;;;;;;11.02;4.03;;;9.80;99.90;;;;;;4250335;27;20039;-56
2023/11/08 07:40:47;;;;;;;11.05;4.28;;;9.90;99.90;;;;;;4250074;27;20500;-55
2023/11/08 07:42:49;;;;;;;6.40;4.05;;;9.90;99.90;;;;;;4249493;27;20071;-56
2023/11/08 07:44:51;;;;;;;8.20;4.13;;;9.90;99.90;;;;;;4248860;27;20043;-58
2023/11/08 07:46:54;;;;;;;9.70;4.50;;;9.90;99.90;;;;;;4250116;27;20047;-58
2023/11/08 07:48:56;;;;;;;14.27;5.10;;;10.00;99.90;;;;;;4249344;27;20089;-55
2023/11/08 07:51:00;;;;;;;7.35;4.60;;;10.10;99.90;;;;;;4248230;27;20044;-54
2023/11/08 07:53:04;;;;;;;8.75;4.43;;;10.10;99.90;;;;;;4248796;27;20133;-55
2023/11/08 07:55:11;;;;;;;9.18;5.18;;;10.20;99.90;;;;;;4248464;27;20078;-54
2023/11/08 07:57:13;;;;;;;8.80;4.95;;;10.20;99.90;;;;;;4248242;27;20088;-56
2023/11/08 07:59:15;;;;;;;8.27;4.45;;;10.20;99.90;;;;;;4247801;27;20379;-55
2023/11/08 08:01:18;;;;;;;9.65;4.80;;;10.20;99.90;;;;;;4248185;27;20047;-55
2023/11/08 08:03:23;;;;;;;7.80;4.15;;;10.30;99.90;;;;;;4247766;27;20050;-55
2023/11/08 08:05:25;;;;;;;11.75;4.15;;;10.30;99.90;;;;;;4248240;27;20055;-56
2023/11/08 08:07:27;;;;;;;7.65;3.80;;;10.30;99.90;;;;;;4248202;27;20100;-56
2023/11/08 08:09:31;;;;;;;9.57;3.65;;;10.30;99.90;;;;;;4247680;27;20074;-55
2023/11/08 08:11:35;;;;;;;;;;;10.10;99.90;;;;;;4248734;27;20047;-55
2023/11/08 08:13:37;;;;;;;11.07;3.30;;;10.10;99.90;;;;;;4247706;27;20018;-55
2023/11/08 08:15:40;;;;;;;5.40;3.25;;;10.00;99.90;;;;;;4247993;27;20435;-55
2023/11/08 08:17:45;;;;;;;11.55;4.03;;;10.00;99.90;;;;;;4247730;27;20058;-54
2023/11/08 08:19:47;;;;;;;8.65;4.03;;;10.00;99.90;;;;;;4248109;27;20104;-55
2023/11/08 08:21:51;;;;;;;7.38;3.75;;;10.00;99.90;;;;;;4248140;27;20106;-54
2023/11/08 08:23:54;;;;;;;9.77;4.68;;;10.00;99.90;;;;;;4247902;27;20133;-55
2023/11/08 08:26:09;;;;;;;11.73;3.78;;;10.10;99.90;;;;;;4248073;27;20043;-55
2023/11/08 08:28:12;;;;;;;9.73;3.72;;;10.00;99.90;;;;;;4247664;27;20077;-54
2023/11/08 08:30:14;;;;;;;11.25;4.20;;;10.10;99.90;;;;;;4247937;27;20047;-59
2023/11/08 08:32:17;;;;;;;7.97;3.88;;;10.10;99.90;;;;;;4247706;27;20451;-55
2023/11/08 08:34:19;;;;;;;9.63;4.15;;;10.20;99.90;;;;;;4247549;27;20047;-55
2023/11/08 08:36:32;;;;;;;7.32;3.58;;;10.20;99.90;;;;;;4247724;28;20088;-55
2023/11/08 08:38:36;;;;;;;11.07;4.80;;;10.20;99.90;;;;;;4247840;27;20309;-55
2023/11/08 08:40:38;;;;;;;14.52;5.60;;;10.40;99.90;;;;;;4247614;27;20473;-55
2023/11/08 08:42:42;;;;;;;9.80;3.83;;;10.40;99.90;;;;;;4247311;28;20413;-56
2023/11/08 08:44:45;;;;;;;9.18;4.68;;;10.40;99.90;;;;;;4247441;28;20054;-54
2023/11/08 08:46:47;;;;;;;10.90;5.13;;;10.50;99.90;;;;;;4247529;27;20053;-53
2023/11/08 08:48:51;;;;;;;8.40;4.63;;;10.40;99.90;;;;;;4247620;28;20097;-54
2023/11/08 08:50:53;;;;;;;17.33;5.05;;;10.40;99.90;;;;;;4247716;28;20100;-54
2023/11/08 08:52:55;;;;;;;13.40;4.82;;;10.50;99.90;;;;;;4247531;28;20054;-56
2023/11/08 08:54:57;;;;;;;7.97;4.40;;;10.50;99.90;;;;;;4247377;28;20076;-55
2023/11/08 08:57:01;;;;;;;8.77;3.83;;;10.50;99.90;;;;;;4246974;28;20491;-53
2023/11/08 08:59:04;;;;;;;7.15;4.38;;;10.60;99.90;;;;;;4247292;28;20481;-58
2023/11/08 09:01:10;;;;;;;7.88;4.60;;;10.50;99.90;;;;;;4247526;28;20066;-55
2023/11/08 09:03:14;;;;;;;14.43;4.90;;;10.50;99.90;;;;;;4247144;28;20111;-55
2023/11/08 09:05:18;;;;;;;11.98;4.85;;;10.50;99.90;;;;;;4247206;28;20092;-55
2023/11/08 09:07:21;;;;;;;13.35;5.72;;;10.50;99.90;;;;;;4247358;28;20145;-55
2023/11/08 09:09:23;;;;;;;9.20;5.32;;;10.50;99.90;;;;;;4247234;28;20501;-54
2023/11/08 09:11:25;;;;;;;9.32;3.80;;;10.50;99.90;;;;;;4228125;28;20047;-54
2023/11/08 09:13:27;;;;;;;11.48;4.28;;;11.00;99.90;;;;;;4248454;27;20406;-55
2023/11/08 09:15:32;;;;;;;6.90;3.50;;;11.20;99.90;;;;;;4257208;27;20074;-55
2023/11/08 09:17:34;;;;;;;7.82;3.88;;;11.40;99.90;;;;;;4260300;27;20043;-53
2023/11/08 09:19:36;;;;;;;9.10;4.70;;;11.60;99.90;;;;;;4264104;27;20412;-55
2023/11/08 09:21:38;;;;;;;11.32;3.50;;;11.70;99.90;;;;;;4265533;27;20481;-52
2023/11/08 09:23:41;;;;;;;6.22;3.45;;;11.70;99.90;;;;;;4266889;27;20039;-55
2023/11/08 09:25:43;;;;;;;9.85;3.47;;;12.00;99.90;;;;;;4263539;27;20099;-55
2023/11/08 09:27:45;;;;;;;5.95;3.38;;;12.30;99.90;;;;;;4267131;27;20125;-55
2023/11/08 09:29:47;;;;;;;12.02;3.38;;;12.20;99.90;;;;;;4267071;27;20095;-55
2023/11/08 09:31:51;;;;;;;13.13;3.22;;;12.20;99.90;;;;;;4266727;27;20484;-54
2023/11/08 09:33:53;;;;;;;10.77;3.30;;;12.30;99.90;;;;;;4266840;27;20083;-59
2023/11/08 09:35:55;;;;;;;5.32;3.22;;;12.40;99.90;;;;;;4267011;27;20415;-59
2023/11/08 09:37:58;;;;;;;11.57;3.58;;;12.30;99.90;;;;;;4267325;27;20043;-56
2023/11/08 09:40:00;;;;;;;10.85;3.60;;;12.50;99.90;;;;;;4266662;27;20103;-58
2023/11/08 09:42:04;;;;;;;17.77;4.35;;;12.60;99.90;;;;;;4248439;27;20039;-55
2023/11/08 09:44:07;;;;;;;8.15;3.75;;;12.50;99.90;;;;;;4247899;27;20496;-56
2023/11/08 09:46:10;;;;;;;7.95;3.67;;;12.30;99.90;;;;;;4260905;27;20038;-55
2023/11/08 09:48:13;;;;;;;10.43;3.83;;;12.10;99.90;;;;;;4266472;27;20049;-55
2023/11/08 09:50:16;;;;;;;15.57;4.50;;;11.90;99.90;;;;;;4266123;27;20051;-55
2023/11/08 09:52:19;;;;;;;8.32;3.50;;;11.90;99.90;;;;;;4266407;27;20054;-56
2023/11/08 09:54:21;;;;;;;8.65;4.40;;;11.70;99.90;;;;;;4265765;27;20038;-53
2023/11/08 09:56:24;;;;;;;9.80;3.92;;;11.80;99.90;;;;;;4266048;27;20050;-54
2023/11/08 09:58:26;;;;;;;9.05;4.30;;;11.80;99.90;;;;;;4265476;27;20050;-55
2023/11/08 10:00:30;;;;;;;7.43;3.38;;;11.70;99.90;;;;;;4264521;27;20050;-61
2023/11/08 10:02:35;;;;;;;8.98;4.38;;;11.80;99.90;;;;;;4248802;27;20519;-55
2023/11/08 10:04:41;;;;;;;;;;;11.70;99.90;;;;;;4249427;27;20100;-55
2023/11/08 10:06:47;;;;;;;10.98;4.03;;;11.60;99.90;;;;;;4248742;27;20014;-55
2023/11/08 10:08:49;;;;;;;8.30;3.97;;;11.60;99.90;;;;;;4248622;27;20051;-55
2023/11/08 10:10:54;;;;;;;11.38;3.70;;;11.50;99.90;;;;;;4248924;27;20120;-58
2023/11/08 10:13:03;;;;;;;6.70;3.30;;;11.40;99.90;;;;;;4249153;27;20126;-56
2023/11/08 10:15:06;;;;;;;10.05;3.15;;;11.40;99.90;;;;;;4248871;27;20115;-54
2023/11/08 10:17:09;;;;;;;13.18;3.45;;;11.50;99.90;;;;;;4259719;27;20051;-53
2023/11/08 10:19:45;;;;;;;12.57;3.58;;;11.60;99.90;;;;;;4266001;27;20500;-55
2023/11/08 10:21:51;;;;;;;9.55;2.95;;;11.70;99.90;;;;;;4265548;27;20121;-54
2023/11/08 10:23:59;;;;;;;9.48;2.83;;;11.90;99.90;;;;;;4265491;27;20117;-54
2023/11/08 10:26:13;;;;;;;9.93;2.88;;;12.00;99.90;;;;;;4248694;27;20053;-54
2023/11/08 10:28:17;;;;;;;6.25;2.88;;;11.90;99.90;;;;;;4248847;27;20123;-58
2023/11/08 10:30:21;;;;;;;10.68;3.08;;;11.80;99.90;;;;;;4257822;27;20039;-55
2023/11/08 10:32:24;;;;;;;8.98;3.13;;;11.90;99.90;;;;;;4265012;27;20038;-55
2023/11/08 10:34:27;;;;;;;8.15;2.92;;;12.10;99.90;;;;;;4265537;27;20050;-55
2023/11/08 10:36:32;;;;;;;12.45;3.10;;;12.10;99.90;;;;;;4265167;27;20122;-54
2023/11/08 10:38:36;;;;;;;10.23;3.00;;;12.20;99.90;;;;;;4264752;27;20047;-55